Time;durP1;ratioP1;P1;durP2;ratioP2;P2;SDS_P1;SDS_P2;PMS_P1;PMS_P2;Temp;Humidity;BMP_temperature;BMP_pressure;BME280_temperature;BME280_humidity;BME280_pressure;Samples;Min_cycle;Max_cycle;Signal;HPM_P1;HPM_P2
2021/04/19 00:01:09;;;;;;;;;;;;;;;4.92;65.78;101101.75;5053422;28;19939;-76
2021/04/19 00:03:35;;;;;;;;;;;;;;;4.88;65.66;101089.56;5092679;28;19923;-77
2021/04/19 00:06:00;;;;;;;;;;;;;;;4.86;65.90;101094.47;5095161;28;19916;-76
2021/04/19 00:08:25;;;;;;;;;;;;;;;4.83;65.59;101092.19;5090757;28;20331;-76
2021/04/19 00:10:51;;;;;;;;;;;;;;;4.85;65.31;101090.03;5076668;28;19923;-76
2021/04/19 00:13:16;;;;;;;;;;;;;;;4.79;65.32;101089.09;5059104;28;19927;-77
2021/04/19 00:15:41;;;;;;;;;;;;;;;4.77;65.92;101091.25;5094329;28;19923;-76
2021/04/19 00:18:07;;;;;;;;;;;;;;;4.73;65.55;101091.97;5093110;28;19924;-76
2021/04/19 00:20:32;;;;;;;;;;;;;;;4.72;65.52;101091.13;5080329;28;19916;-76
2021/04/19 00:22:58;;;;;;;;;;;;;;;4.67;65.90;101088.25;5071662;28;19916;-76
2021/04/19 00:25:23;;;;;;;;;;;;;;;4.66;65.60;101086.59;5091021;28;19984;-76
2021/04/19 00:27:48;;;;;;;;;;;;;;;4.60;65.70;101090.31;5083947;28;19956;-76
2021/04/19 00:30:14;;;;;;;;;;;;;;;4.59;65.99;101086.69;5079032;28;19916;-77
2021/04/19 00:32:40;;;;;;;;;;;;;;;4.56;65.90;101076.19;5088475;28;19965;-76
2021/04/19 00:35:05;;;;;;;;;;;;;;;4.52;65.58;101087.91;5079319;28;19916;-76
2021/04/19 00:37:31;;;;;;;;;;;;;;;4.52;65.38;101098.91;5097017;28;19920;-76
2021/04/19 00:39:56;;;;;;;;;;;;;;;4.48;65.50;101087.53;5097960;28;19916;-77
2021/04/19 00:42:21;;;;;;;;;;;;;;;4.46;65.57;101079.53;5098297;28;19916;-76
2021/04/19 00:44:47;;;;;;;;;;;;;;;4.44;65.35;101080.84;5093132;28;19921;-76
2021/04/19 00:47:12;;;;;;;;;;;;;;;4.44;65.37;101076.19;5097780;28;20007;-77
2021/04/19 00:49:38;;;;;;;;;;;;;;;4.41;65.63;101076.66;5080179;28;19920;-78
2021/04/19 00:52:03;;;;;;;;;;;;;;;4.41;65.68;101070.34;5078130;28;19999;-77
2021/04/19 00:54:28;;;;;;;;;;;;;;;4.38;65.67;101063.41;5079944;28;19916;-77
2021/04/19 00:56:54;;;;;;;;;;;;;;;4.32;65.80;101063.50;5078126;28;19916;-76
2021/04/19 00:59:19;;;;;;;;;;;;;;;4.31;65.79;101064.59;5059287;28;19974;-76
2021/04/19 01:01:45;;;;;;;;;;;;;;;4.25;65.89;101061.72;5060472;28;19916;-76
2021/04/19 01:04:10;;;;;;;;;;;;;;;4.25;66.08;101061.72;5096199;28;20329;-76
2021/04/19 01:06:35;;;;;;;;;;;;;;;4.24;66.18;101060.06;5075286;28;20276;-76
2021/04/19 01:09:01;;;;;;;;;;;;;;;4.20;66.08;101067.09;5078085;28;19992;-76
2021/04/19 01:11:26;;;;;;;;;;;;;;;4.28;65.88;101060.41;5096268;28;20364;-76
2021/04/19 01:13:51;;;;;;;;;;;;;;;4.17;66.05;101056.56;5096217;28;19916;-76
2021/04/19 01:16:16;;;;;;;;;;;;;;;4.17;66.42;101058.50;5077644;28;19916;-76
2021/04/19 01:18:42;;;;;;;;;;;;;;;4.10;67.05;101063.28;5072800;28;19923;-76
2021/04/19 01:21:07;;;;;;;;;;;;;;;4.11;66.33;101056.69;5074290;28;20342;-78
2021/04/19 01:23:33;;;;;;;;;;;;;;;4.09;66.16;101053.34;5093710;28;19991;-76
2021/04/19 01:25:58;;;;;;;;;;;;;;;4.09;66.26;101048.69;5076273;28;19939;-76
2021/04/19 01:28:23;;;;;;;;;;;;;;;4.08;66.73;101054.44;5091152;28;19940;-76
2021/04/19 01:30:49;;;;;;;;;;;;;;;4.05;66.73;101042.00;5096630;28;19916;-76
2021/04/19 01:33:15;;;;;;;;;;;;;;;4.03;66.34;101036.72;5084186;28;19924;-76
2021/04/19 01:35:40;;;;;;;;;;;;;;;4.01;66.51;101040.78;5069798;28;19917;-76
2021/04/19 01:38:06;;;;;;;;;;;;;;;4.01;66.22;101040.78;5090041;28;19974;-76
2021/04/19 01:40:32;;;;;;;;;;;;;;;4.01;66.29;101043.53;5095056;28;20395;-76
2021/04/19 01:42:57;;;;;;;;;;;;;;;4.02;66.19;101036.97;5055525;28;19943;-76
2021/04/19 01:45:23;;;;;;;;;;;;;;;3.99;66.06;101034.72;5083047;28;19951;-76
2021/04/19 01:47:48;;;;;;;;;;;;;;;3.99;65.91;101026.47;5057081;28;19966;-76
2021/04/19 01:50:23;;;;;;;;;;;;;;;3.96;65.97;101022.28;5096560;28;19916;-76
2021/04/19 01:52:48;;;;;;;;;;;;;;;3.95;65.92;101028.81;5077640;28;20437;-77
2021/04/19 01:55:15;;;;;;;;;;;;;;;3.94;65.81;101024.41;5097267;28;19911;-76
2021/04/19 01:57:41;;;;;;;;;;;;;;;3.90;65.79;101020.47;5096161;28;19916;-76
2021/04/19 02:00:06;;;;;;;;;;;;;;;3.87;65.71;101023.69;5076813;28;20326;-76
2021/04/19 02:02:32;;;;;;;;;;;;;;;3.86;65.73;101018.44;5079494;28;20431;-76
2021/04/19 02:05:03;;;;;;;;;;;;;;;3.85;65.81;101025.00;5076777;28;19969;-76
2021/04/19 02:07:49;;;;;;;;;;;;;;;3.83;65.90;101021.66;5058238;28;19916;-76
2021/04/19 02:10:19;;;;;;;;;;;;;;;3.78;65.83;101011.38;5074369;28;19939;-76
2021/04/19 02:12:45;;;;;;;;;;;;;;;3.77;65.92;101010.53;5061100;28;19924;-76
2021/04/19 02:15:15;;;;;;;;;;;;;;;3.73;65.71;101009.34;5073132;28;20293;-76
2021/04/19 02:17:42;;;;;;;;;;;;;;;3.71;65.67;101011.50;5077236;28;20292;-76
2021/04/19 02:20:20;;;;;;;;;;;;;;;3.70;65.65;101009.78;5077353;28;19923;-76
2021/04/19 02:22:50;;;;;;;;;;;;;;;3.68;65.42;101011.13;5095370;28;19937;-76
2021/04/19 02:25:20;;;;;;;;;;;;;;;3.67;65.46;101004.78;5077849;28;20261;-76
2021/04/19 02:27:54;;;;;;;;;;;;;;;3.65;65.24;101006.09;5077610;28;19938;-75
2021/04/19 02:30:20;;;;;;;;;;;;;;;3.60;65.42;101009.56;5042306;28;19924;-76
2021/04/19 02:32:50;;;;;;;;;;;;;;;3.60;65.26;101005.97;5077985;28;19923;-76
2021/04/19 02:35:15;;;;;;;;;;;;;;;3.56;65.22;101002.84;5057803;28;20265;-76
2021/04/19 02:37:41;;;;;;;;;;;;;;;3.55;65.23;101002.00;5069321;28;19923;-76
2021/04/19 02:40:07;;;;;;;;;;;;;;;3.57;65.13;101010.03;5077636;28;19919;-76
2021/04/19 02:42:34;;;;;;;;;;;;;;;3.51;65.29;101005.47;5086002;28;20669;-76
2021/04/19 02:44:59;;;;;;;;;;;;;;;3.44;65.31;101004.75;5069961;28;19916;-76
2021/04/19 02:47:24;;;;;;;;;;;;;;;3.46;65.28;101008.09;5073524;28;19921;-76
2021/04/19 02:49:50;;;;;;;;;;;;;;;3.43;65.47;101005.81;5076791;28;19912;-76
2021/04/19 02:52:15;;;;;;;;;;;;;;;3.47;65.27;101009.75;5092643;28;19923;-76
2021/04/19 02:54:41;;;;;;;;;;;;;;;3.36;65.44;101014.97;5058211;28;19917;-76
2021/04/19 02:57:25;;;;;;;;;;;;;;;3.36;65.45;101009.47;5074790;28;19912;-76
2021/04/19 02:59:51;;;;;;;;;;;;;;;3.25;65.70;101007.53;5091271;28;19967;-76
2021/04/19 03:02:17;;;;;;;;;;;;;;;3.32;65.26;101013.78;5095313;28;19977;-76
2021/04/19 03:04:42;;;;;;;;;;;;;;;3.22;65.55;101012.66;5096012;28;19927;-76
2021/04/19 03:07:07;;;;;;;;;;;;;;;3.26;65.41;100998.25;5093280;28;19927;-76
2021/04/19 03:09:33;;;;;;;;;;;;;;;3.25;65.33;101002.03;5056519;28;19923;-76
2021/04/19 03:12:02;;;;;;;;;;;;;;;3.20;65.50;100999.16;5094457;28;20441;-76
2021/04/19 03:14:39;;;;;;;;;;;;;;;3.16;65.60;100997.13;5075341;28;19916;-76
2021/04/19 03:17:08;;;;;;;;;;;;;;;3.12;65.50;100996.75;5075799;28;19969;-77
2021/04/19 03:19:35;;;;;;;;;;;;;;;3.11;65.56;100990.41;5072001;28;19973;-76
2021/04/19 03:22:00;;;;;;;;;;;;;;;3.05;65.66;100988.63;5075429;28;19965;-75
2021/04/19 03:24:26;;;;;;;;;;;;;;;3.06;65.57;100987.53;5074220;28;19916;-76
2021/04/19 03:26:52;;;;;;;;;;;;;;;3.09;65.55;100989.84;5077230;28;19923;-76
2021/04/19 03:29:17;;;;;;;;;;;;;;;3.02;65.47;100991.00;5065379;28;19958;-75
2021/04/19 03:31:50;;;;;;;;;;;;;;;3.00;65.85;100991.22;5072997;28;19993;-76
2021/04/19 03:34:21;;;;;;;;;;;;;;;2.98;65.63;100989.75;5063642;28;19916;-76
2021/04/19 03:36:53;;;;;;;;;;;;;;;2.97;65.82;100990.84;5075143;28;19920;-76
2021/04/19 03:39:19;;;;;;;;;;;;;;;2.93;65.61;100984.16;5074057;28;19926;-76
2021/04/19 03:41:45;;;;;;;;;;;;;;;2.89;65.68;100989.25;5075946;28;19916;-76
2021/04/19 03:44:11;;;;;;;;;;;;;;;2.82;65.94;100980.28;5070870;28;19969;-76
2021/04/19 03:46:37;;;;;;;;;;;;;;;2.82;65.72;100980.28;5091929;28;19927;-76
2021/04/19 03:49:04;;;;;;;;;;;;;;;2.79;65.84;100976.09;5073614;28;19916;-76
2021/04/19 03:51:29;;;;;;;;;;;;;;;2.78;65.77;100973.56;5095500;28;19912;-76
2021/04/19 03:53:56;;;;;;;;;;;;;;;2.70;65.94;100977.47;5073644;28;19923;-76
2021/04/19 03:56:21;;;;;;;;;;;;;;;2.76;65.78;100968.34;5077057;28;19923;-76
2021/04/19 03:58:47;;;;;;;;;;;;;;;2.69;65.87;100975.81;5075925;28;20014;-76
2021/04/19 04:01:12;;;;;;;;;;;;;;;2.67;66.05;100973.31;5077820;28;19916;-76
2021/04/19 04:03:37;;;;;;;;;;;;;;;2.66;66.01;100971.63;5079177;28;19928;-76
2021/04/19 04:06:02;;;;;;;;;;;;;;;2.64;66.03;100971.00;5063630;28;20010;-76
2021/04/19 04:08:28;;;;;;;;;;;;;;;2.60;66.11;100968.97;5038633;28;19959;-75
2021/04/19 04:10:54;;;;;;;;;;;;;;;2.60;66.19;100966.22;5051312;28;19931;-76
2021/04/19 04:13:19;;;;;;;;;;;;;;;2.56;66.40;100973.22;5098393;28;19923;-75
2021/04/19 04:15:48;;;;;;;;;;;;;;;2.51;66.31;100967.59;5096033;28;19959;-76
2021/04/19 04:18:14;;;;;;;;;;;;;;;2.52;66.20;100966.53;5096545;28;19943;-75
2021/04/19 04:20:39;;;;;;;;;;;;;;;2.56;66.09;100965.00;5081327;28;19912;-75
2021/04/19 04:23:04;;;;;;;;;;;;;;;2.52;66.14;100969.28;5057512;28;19923;-76
2021/04/19 04:25:30;;;;;;;;;;;;;;;2.46;66.20;100963.63;5096605;28;20343;-76
2021/04/19 04:27:55;;;;;;;;;;;;;;;2.41;66.33;100960.75;5078129;28;19919;-76
2021/04/19 04:30:20;;;;;;;;;;;;;;;2.39;66.26;100964.78;5088285;28;19970;-76
2021/04/19 04:32:46;;;;;;;;;;;;;;;2.41;66.19;100963.47;5063432;28;20503;-75
2021/04/19 04:35:11;;;;;;;;;;;;;;;2.40;66.07;100964.56;5096913;28;19912;-76
2021/04/19 04:37:36;;;;;;;;;;;;;;;2.38;66.40;100963.94;5095490;28;19923;-76
2021/04/19 04:40:02;;;;;;;;;;;;;;;2.38;66.06;100963.94;5094857;28;19916;-76
2021/04/19 04:42:27;;;;;;;;;;;;;;;2.37;66.03;100967.75;5079700;28;19920;-76
2021/04/19 04:44:53;;;;;;;;;;;;;;;2.32;66.00;100964.88;5075483;28;19933;-76
2021/04/19 04:47:27;;;;;;;;;;;;;;;2.30;66.14;100967.00;5077937;28;19920;-76
2021/04/19 04:50:08;;;;;;;;;;;;;;;2.29;66.07;100970.81;5079657;28;19912;-76
2021/04/19 04:52:36;;;;;;;;;;;;;;;2.27;66.20;100969.34;5085991;28;19916;-76
2021/04/19 04:55:02;;;;;;;;;;;;;;;2.26;66.25;100967.66;5076032;28;19916;-76
2021/04/19 04:57:27;;;;;;;;;;;;;;;2.22;66.38;100970.03;5058159;28;20494;-76
2021/04/19 04:59:53;;;;;;;;;;;;;;;2.18;66.35;100972.41;5077371;28;19934;-76
2021/04/19 05:02:19;;;;;;;;;;;;;;;2.16;66.65;100976.44;5089270;28;19924;-76
2021/04/19 05:04:44;;;;;;;;;;;;;;;2.21;66.31;100976.59;5076444;28;19963;-75
2021/04/19 05:07:09;;;;;;;;;;;;;;;2.13;66.49;100974.16;5071969;28;19923;-75
2021/04/19 05:09:35;;;;;;;;;;;;;;;2.12;66.60;100970.56;5093470;28;20044;-75
2021/04/19 05:12:00;;;;;;;;;;;;;;;2.12;66.67;100980.69;5078681;28;19928;-75
2021/04/19 05:14:26;;;;;;;;;;;;;;;2.11;66.62;100979.00;5076891;28;19924;-75
2021/04/19 05:16:51;;;;;;;;;;;;;;;2.08;66.90;100980.28;5094863;28;19923;-74
2021/04/19 05:19:16;;;;;;;;;;;;;;;2.14;67.08;100984.03;5092479;28;19947;-73
2021/04/19 05:21:42;;;;;;;;;;;;;;;2.19;68.66;100979.53;5085596;28;19924;-75
2021/04/19 05:24:07;;;;;;;;;;;;;;;2.22;67.82;100987.31;5072082;28;19920;-75
2021/04/19 05:26:33;;;;;;;;;;;;;;;2.22;67.67;100979.09;5096921;28;19923;-75
2021/04/19 05:28:58;;;;;;;;;;;;;;;2.17;67.60;100986.31;5078724;28;19983;-75
2021/04/19 05:31:23;;;;;;;;;;;;;;;2.18;67.51;100977.88;5077688;28;19916;-75
2021/04/19 05:33:53;;;;;;;;;;;;;;;2.22;67.23;100981.81;5096882;28;19912;-75
2021/04/19 05:36:18;;;;;;;;;;;;;;;2.23;67.39;100982.69;5079733;28;19920;-75
2021/04/19 05:38:44;;;;;;;;;;;;;;;2.23;67.85;100983.53;5058966;28;19916;-75
2021/04/19 05:41:10;;;;;;;;;;;;;;;2.30;67.65;100997.13;5077813;28;19923;-75
2021/04/19 05:43:35;;;;;;;;;;;;;;;2.32;67.39;100991.44;5080104;28;19912;-75
2021/04/19 05:46:00;;;;;;;;;;;;;;;2.33;67.84;100990.38;5075026;28;19919;-75
2021/04/19 05:48:26;;;;;;;;;;;;;;;2.39;68.11;100990.28;5077609;28;19979;-75
2021/04/19 05:50:52;;;;;;;;;;;;;;;2.44;68.82;100993.19;5090905;28;20010;-75
2021/04/19 05:53:17;;;;;;;;;;;;;;;2.49;67.95;100980.72;5068079;28;19924;-75
2021/04/19 05:55:44;;;;;;;;;;;;;;;2.56;68.18;100984.19;5078646;28;20242;-75
2021/04/19 05:58:26;;;;;;;;;;;;;;;2.61;68.53;100993.41;5095303;28;19960;-75
2021/04/19 06:00:53;;;;;;;;;;;;;;;2.71;68.86;100979.16;5093378;28;19937;-75
2021/04/19 06:03:26;;;;;;;;;;;;;;;2.81;68.83;100978.59;5075798;28;19920;-75
2021/04/19 06:06:01;;;;;;;;;;;;;;;2.93;69.47;100989.66;5062216;28;20368;-75
2021/04/19 06:08:27;;;;;;;;;;;;;;;3.05;69.81;100979.56;5077221;28;19927;-75
2021/04/19 06:10:55;;;;;;;;;;;;;;;3.18;70.08;100984.84;5077248;28;19947;-75
2021/04/19 06:13:20;;;;;;;;;;;;;;;3.32;70.28;100977.25;5078750;28;19974;-75
2021/04/19 06:15:47;;;;;;;;;;;;;;;3.45;70.68;100984.44;5078405;28;19912;-75
2021/04/19 06:18:12;;;;;;;;;;;;;;;3.59;69.56;100980.41;5093850;28;19927;-73
2021/04/19 06:20:38;;;;;;;;;;;;;;;3.75;69.01;100984.38;5095537;28;19966;-73
2021/04/19 06:23:03;;;;;;;;;;;;;;;3.94;69.27;100983.19;5096324;28;19962;-73
2021/04/19 06:25:29;;;;;;;;;;;;;;;4.11;68.87;100977.81;5094157;28;19924;-72
2021/04/19 06:27:58;;;;;;;;;;;;;;;4.30;68.99;100986.75;5078586;28;19920;-74
2021/04/19 06:30:25;;;;;;;;;;;;;;;4.49;69.10;100984.72;5075662;28;19931;-73
2021/04/19 06:32:50;;;;;;;;;;;;;;;4.66;68.97;100982.88;5056227;28;19923;-74
2021/04/19 06:35:16;;;;;;;;;;;;;;;4.86;69.08;100990.69;5078258;28;19916;-74
2021/04/19 06:37:42;;;;;;;;;;;;;;;5.03;69.19;100990.75;5094156;28;20284;-74
2021/04/19 06:40:07;;;;;;;;;;;;;;;5.22;68.38;100994.16;5072187;28;20182;-74
2021/04/19 06:42:33;;;;;;;;;;;;;;;5.42;67.85;100990.09;5094192;28;19976;-73
2021/04/19 06:44:59;;;;;;;;;;;;;;;5.60;68.65;100987.13;5093058;28;19912;-73
2021/04/19 06:47:25;;;;;;;;;;;;;;;5.80;68.08;100989.38;5037944;28;19928;-74
2021/04/19 06:49:50;;;;;;;;;;;;;;;5.98;68.52;100986.38;5044671;28;19927;-74
2021/04/19 06:52:16;;;;;;;;;;;;;;;6.18;68.52;100982.25;5058609;28;19937;-74
2021/04/19 06:54:41;;;;;;;;;;;;;;;6.40;68.26;100982.31;5072405;28;19972;-74
2021/04/19 06:57:08;;;;;;;;;;;;;;;6.57;67.77;100977.56;5094581;28;19934;-74
2021/04/19 06:59:33;;;;;;;;;;;;;;;6.79;67.46;100974.81;5075589;28;19923;-74
2021/04/19 07:01:58;;;;;;;;;;;;;;;6.97;68.70;100978.34;5074376;28;20291;-74
2021/04/19 07:04:24;;;;;;;;;;;;;;;7.16;69.10;100976.91;5077307;28;20007;-70
2021/04/19 07:06:49;;;;;;;;;;;;;;;7.35;67.88;100969.06;5076197;28;20257;-75
2021/04/19 07:09:25;;;;;;;;;;;;;;;7.56;67.21;100975.63;5074299;28;19916;-75
2021/04/19 07:11:52;;;;;;;;;;;;;;;7.74;67.14;100964.16;5095679;28;19946;-76
2021/04/19 07:14:17;;;;;;;;;;;;;;;7.92;66.78;100970.41;5047603;28;19938;-76
2021/04/19 07:16:43;;;;;;;;;;;;;;;8.07;67.01;100968.56;5053556;28;20380;-76
2021/04/19 07:19:08;;;;;;;;;;;;;;;8.24;67.15;100962.84;5061340;28;19924;-76
2021/04/19 07:21:33;;;;;;;;;;;;;;;8.40;67.01;100963.00;5095732;28;20011;-76
2021/04/19 07:24:00;;;;;;;;;;;;;;;8.56;67.76;100964.75;5057456;28;19938;-76
2021/04/19 07:26:26;;;;;;;;;;;;;;;8.71;68.35;100962.03;5077516;28;20005;-76
2021/04/19 07:28:51;;;;;;;;;;;;;;;8.86;68.34;100965.94;5077239;28;19916;-76
2021/04/19 07:31:17;;;;;;;;;;;;;;;9.07;67.58;100964.09;5071644;28;19938;-76
2021/04/19 07:33:42;;;;;;;;;;;;;;;9.23;67.56;100964.97;5052088;28;19952;-76
2021/04/19 07:36:27;;;;;;;;;;;;;;;9.44;68.18;100961.09;5083722;28;19921;-76
2021/04/19 07:38:52;;;;;;;;;;;;;;;9.65;67.38;100956.41;5086825;28;19927;-76
2021/04/19 07:41:18;;;;;;;;;;;;;;;9.81;66.98;100957.25;5073322;28;20441;-76
2021/04/19 07:43:44;;;;;;;;;;;;;;;10.03;67.31;100955.00;5092875;28;20455;-76
2021/04/19 07:46:16;;;;;;;;;;;;;;;10.20;65.33;100948.31;5089001;28;19920;-76
2021/04/19 07:48:44;;;;;;;;;;;;;;;10.38;63.87;100950.50;5094872;28;19920;-76
2021/04/19 07:51:29;;;;;;;;;;;;;;;10.55;63.58;100952.13;5061502;28;19923;-76
2021/04/19 07:54:13;;;;;;;;;;;;;;;10.78;63.92;100956.19;5092069;28;19916;-76
2021/04/19 07:56:38;;;;;;;;;;;;;;;10.93;62.64;100945.84;5093622;28;19927;-76
2021/04/19 07:59:24;;;;;;;;;;;;;;;11.10;61.60;100947.44;5076819;28;19916;-76
2021/04/19 08:01:59;;;;;;;;;;;;;;;11.32;62.52;100952.59;5093195;28;19916;-76
2021/04/19 08:04:25;;;;;;;;;;;;;;;11.51;62.36;100953.56;5057965;28;19916;-76
2021/04/19 08:06:50;;;;;;;;;;;;;;;11.68;61.02;100949.53;5095511;28;19916;-76
2021/04/19 08:09:15;;;;;;;;;;;;;;;11.88;61.21;100943.00;5054664;28;19920;-76
2021/04/19 08:11:41;;;;;;;;;;;;;;;12.05;61.05;100935.03;5089906;28;19989;-76
2021/04/19 08:14:06;;;;;;;;;;;;;;;12.18;60.07;100937.13;5095428;28;19954;-76
2021/04/19 08:16:32;;;;;;;;;;;;;;;12.34;59.04;100934.16;5095541;28;19999;-73
2021/04/19 08:19:01;;;;;;;;;;;;;;;12.41;58.87;100929.91;5091316;28;19924;-74
2021/04/19 08:21:26;;;;;;;;;;;;;;;12.50;59.15;100932.88;5092947;28;19922;-74
2021/04/19 08:23:52;;;;;;;;;;;;;;;12.59;59.08;100930.25;5093188;28;19990;-73
2021/04/19 08:26:17;;;;;;;;;;;;;;;12.70;60.11;100931.78;5075170;28;19927;-74
2021/04/19 08:28:43;;;;;;;;;;;;;;;12.89;59.81;100924.28;5075869;28;19923;-74
2021/04/19 08:31:09;;;;;;;;;;;;;;;13.05;59.45;100933.28;5087546;28;19920;-75
2021/04/19 08:33:34;;;;;;;;;;;;;;;13.29;57.86;100929.59;5093213;28;19916;-73
2021/04/19 08:35:59;;;;;;;;;;;;;;;13.38;57.95;100931.41;5077250;28;20011;-74
2021/04/19 08:38:25;;;;;;;;;;;;;;;13.56;57.30;100926.94;5054846;28;19964;-74
2021/04/19 08:40:50;;;;;;;;;;;;;;;13.75;57.09;100926.91;5087071;28;19938;-74
2021/04/19 08:43:18;;;;;;;;;;;;;;;13.88;56.90;100922.50;5090982;28;19916;-74
2021/04/19 08:45:43;;;;;;;;;;;;;;;14.02;56.07;100922.53;5092861;28;19916;-74
2021/04/19 08:48:09;;;;;;;;;;;;;;;14.16;56.38;100928.16;5075071;28;19927;-74
2021/04/19 08:50:36;;;;;;;;;;;;;;;14.25;56.26;100926.28;5097248;28;20368;-74
2021/04/19 08:53:02;;;;;;;;;;;;;;;14.36;56.52;100927.75;5098864;28;19934;-74
2021/04/19 08:55:27;;;;;;;;;;;;;;;14.47;56.62;100926.41;5096450;28;19916;-75
2021/04/19 08:57:53;;;;;;;;;;;;;;;14.57;56.27;100917.03;5079142;28;19923;-73
2021/04/19 09:00:20;;;;;;;;;;;;;;;14.66;56.47;100920.75;5098021;28;19920;-73
2021/04/19 09:02:46;;;;;;;;;;;;;;;14.82;55.75;100928.78;5097727;28;20384;-74
2021/04/19 09:05:12;;;;;;;;;;;;;;;14.94;55.93;100921.53;5095907;28;19992;-74
2021/04/19 09:07:38;;;;;;;;;;;;;;;15.06;55.37;100925.75;5098821;28;19912;-74
2021/04/19 09:10:04;;;;;;;;;;;;;;;15.23;54.16;100928.72;5096814;28;19922;-74
2021/04/19 09:12:30;;;;;;;;;;;;;;;15.33;54.71;100934.09;5098110;28;19928;-74
2021/04/19 09:15:11;;;;;;;;;;;;;;;15.42;54.40;100928.56;5080506;28;19938;-74
2021/04/19 09:17:40;;;;;;;;;;;;;;;15.51;54.84;100923.03;5079511;28;19955;-75
2021/04/19 09:20:08;;;;;;;;;;;;;;;15.69;54.68;100922.06;5077635;28;19920;-75
2021/04/19 09:22:34;;;;;;;;;;;;;;;15.79;53.85;100924.56;5098170;28;19918;-75
2021/04/19 09:25:01;;;;;;;;;;;;;;;15.98;52.79;100921.56;5097366;28;20391;-75
2021/04/19 09:27:45;;;;;;;;;;;;;;;16.14;52.22;100916.38;5096409;28;20575;-74
2021/04/19 09:30:25;;;;;;;;;;;;;;;16.31;50.98;100912.84;5094626;28;20360;-75
2021/04/19 09:33:02;;;;;;;;;;;;;;;16.41;51.06;100918.19;5093956;28;19923;-75
2021/04/19 09:35:46;;;;;;;;;;;;;;;16.53;50.90;100909.13;5096055;28;20007;-75
2021/04/19 09:38:11;;;;;;;;;;;;;;;16.65;50.75;100909.34;5097202;28;19967;-75
2021/04/19 09:40:49;;;;;;;;;;;;;;;16.69;51.03;100907.53;5098311;28;20443;-75
2021/04/19 09:43:35;;;;;;;;;;;;;;;16.77;51.27;100905.09;5095270;28;19919;-75
2021/04/19 09:46:01;;;;;;;;;;;;;;;16.85;52.43;100905.13;5088305;28;19924;-75
2021/04/19 09:48:30;;;;;;;;;;;;;;;16.93;51.32;100907.13;5097929;28;19924;-75
2021/04/19 09:50:56;;;;;;;;;;;;;;;17.12;50.08;100908.81;5095592;28;20284;-75
2021/04/19 09:53:21;;;;;;;;;;;;;;;17.28;49.87;100909.16;5093662;28;19961;-75
2021/04/19 09:55:46;;;;;;;;;;;;;;;17.38;49.15;100906.84;5096017;28;19916;-77
2021/04/19 09:58:12;;;;;;;;;;;;;;;17.38;48.31;100912.47;5095299;28;19995;-77
2021/04/19 10:00:38;;;;;;;;;;;;;;;17.41;48.98;100914.59;5095775;28;19916;-72
2021/04/19 10:03:03;;;;;;;;;;;;;;;17.38;49.43;100901.22;5062759;28;20446;-74
2021/04/19 10:05:28;;;;;;;;;;;;;;;17.32;49.74;100913.75;5075197;28;19931;-74
2021/04/19 10:07:54;;;;;;;;;;;;;;;17.31;49.62;100900.88;5095811;28;19912;-75
2021/04/19 10:10:20;;;;;;;;;;;;;;;17.34;49.17;100911.47;5078406;28;20355;-75
2021/04/19 10:12:47;;;;;;;;;;;;;;;17.46;48.33;100907.97;5076820;28;19947;-75
2021/04/19 10:15:18;;;;;;;;;;;;;;;17.51;48.00;100899.38;5076806;28;19967;-72
2021/04/19 10:17:44;;;;;;;;;;;;;;;17.65;48.17;100902.03;5095459;28;20663;-73
2021/04/19 10:20:21;;;;;;;;;;;;;;;17.69;47.53;100907.78;5095895;28;19916;-73
2021/04/19 10:22:46;;;;;;;;;;;;;;;17.74;47.33;100896.38;5092725;28;20072;-75
2021/04/19 10:25:12;;;;;;;;;;;;;;;17.75;47.20;100904.50;5078809;28;19933;-72
2021/04/19 10:27:38;;;;;;;;;;;;;;;17.75;47.12;100903.69;5089367;28;19931;-73
2021/04/19 10:30:14;;;;;;;;;;;;;;;17.84;46.29;100904.50;5095613;28;19912;-73
2021/04/19 10:32:39;;;;;;;;;;;;;;;17.92;46.66;100898.03;5093216;28;20336;-74
2021/04/19 10:35:24;;;;;;;;;;;;;;;17.94;47.39;100901.34;5076447;28;19986;-73
2021/04/19 10:37:50;;;;;;;;;;;;;;;17.99;46.10;100903.13;5096287;28;20564;-74
2021/04/19 10:40:15;;;;;;;;;;;;;;;17.97;47.77;100895.06;5076607;28;19919;-74
2021/04/19 10:42:40;;;;;;;;;;;;;;;17.98;47.65;100896.69;5072441;28;19962;-74
2021/04/19 10:45:09;;;;;;;;;;;;;;;17.95;47.67;100891.75;5053097;28;19921;-75
2021/04/19 10:47:34;;;;;;;;;;;;;;;18.04;47.52;100888.91;5066129;28;20366;-74
2021/04/19 10:50:00;;;;;;;;;;;;;;;18.09;46.94;100883.94;5097301;28;19919;-74
2021/04/19 10:52:25;;;;;;;;;;;;;;;18.14;47.07;100882.13;5061035;28;20045;-74
2021/04/19 10:54:50;;;;;;;;;;;;;;;18.23;46.89;100877.28;5076750;28;19916;-74
2021/04/19 10:57:25;;;;;;;;;;;;;;;18.32;47.05;100883.69;5095653;28;20314;-74
2021/04/19 10:59:54;;;;;;;;;;;;;;;18.29;47.26;100873.94;5093421;28;19920;-74
2021/04/19 11:02:23;;;;;;;;;;;;;;;18.41;45.36;100870.41;5073201;28;19951;-74
2021/04/19 11:04:48;;;;;;;;;;;;;;;18.46;46.83;100870.22;5094373;28;19938;-73
2021/04/19 11:07:23;;;;;;;;;;;;;;;18.41;46.74;100863.94;5095993;28;20368;-73
2021/04/19 11:10:08;;;;;;;;;;;;;;;18.37;46.76;100863.00;5093267;28;20010;-74
2021/04/19 11:12:34;;;;;;;;;;;;;;;18.41;46.58;100863.94;5095265;28;20388;-70
2021/04/19 11:15:07;;;;;;;;;;;;;;;18.44;45.31;100869.75;5095254;28;19916;-70
2021/04/19 11:17:32;;;;;;;;;;;;;;;18.48;45.33;100862.25;5094162;28;19961;-70
2021/04/19 11:19:57;;;;;;;;;;;;;;;18.66;45.16;100854.53;5095274;28;20019;-70
2021/04/19 11:22:27;;;;;;;;;;;;;;;18.71;46.01;100851.53;5092289;28;19971;-70
2021/04/19 11:24:55;;;;;;;;;;;;;;;18.79;45.22;100852.69;5094696;28;19916;-70
2021/04/19 11:27:21;;;;;;;;;;;;;;;18.89;44.90;100846.66;5093733;28;19912;-70
2021/04/19 11:29:47;;;;;;;;;;;;;;;18.98;44.20;100850.22;5096027;28;19922;-70
2021/04/19 11:32:31;;;;;;;;;;;;;;;19.05;45.43;100843.22;5092187;28;19969;-70
2021/04/19 11:34:57;;;;;;;;;;;;;;;19.08;44.18;100839.72;5094749;28;20364;-70
2021/04/19 11:37:28;;;;;;;;;;;;;;;19.17;43.91;100832.03;5059223;28;19916;-70
2021/04/19 11:39:57;;;;;;;;;;;;;;;19.13;43.18;100826.25;5091316;28;19920;-70
2021/04/19 11:42:29;;;;;;;;;;;;;;;19.27;42.71;100825.97;5061375;28;19932;-70
2021/04/19 11:44:54;;;;;;;;;;;;;;;19.40;43.79;100827.66;5086497;28;19961;-70
2021/04/19 11:47:20;;;;;;;;;;;;;;;19.56;44.04;100835.47;5072398;28;19920;-70
2021/04/19 11:49:47;;;;;;;;;;;;;;;19.73;41.77;100826.06;5095605;28;19923;-69
2021/04/19 11:52:13;;;;;;;;;;;;;;;19.91;41.95;100823.84;5038100;28;20428;-70
2021/04/19 11:54:38;;;;;;;;;;;;;;;20.01;42.30;100823.41;5072895;28;20062;-70
2021/04/19 11:57:04;;;;;;;;;;;;;;;20.14;42.99;100819.38;5092372;28;20113;-70
2021/04/19 11:59:29;;;;;;;;;;;;;;;20.26;41.28;100807.31;5095678;28;19920;-70
2021/04/19 12:01:55;;;;;;;;;;;;;;;20.38;41.54;100817.75;5073119;28;19935;-70
2021/04/19 12:04:20;;;;;;;;;;;;;;;20.48;41.65;100820.13;5089754;28;19970;-70
2021/04/19 12:06:45;;;;;;;;;;;;;;;20.57;41.44;100803.91;5069466;28;19938;-70
2021/04/19 12:09:11;;;;;;;;;;;;;;;20.66;41.26;100804.59;5072215;28;19978;-70
2021/04/19 12:11:36;;;;;;;;;;;;;;;20.74;40.59;100794.34;5094390;28;19916;-70
2021/04/19 12:14:02;;;;;;;;;;;;;;;20.89;41.70;100796.41;5092548;28;19988;-70
2021/04/19 12:16:30;;;;;;;;;;;;;;;21.00;40.54;100793.91;5094418;28;19917;-70
2021/04/19 12:18:56;;;;;;;;;;;;;;;21.05;40.94;100788.03;5091828;28;19946;-70
2021/04/19 12:21:21;;;;;;;;;;;;;;;21.21;41.13;100790.91;5093446;28;20459;-70
2021/04/19 12:23:47;;;;;;;;;;;;;;;21.28;39.58;100791.09;5098795;28;19912;-70
2021/04/19 12:26:12;;;;;;;;;;;;;;;21.40;39.86;100793.09;5096179;28;20395;-70
2021/04/19 12:28:37;;;;;;;;;;;;;;;21.53;40.53;100779.72;5099567;28;19981;-70
2021/04/19 12:31:03;;;;;;;;;;;;;;;21.57;39.80;100781.47;5078711;28;19916;-70
2021/04/19 12:33:28;;;;;;;;;;;;;;;21.59;39.67;100783.91;5095630;28;19927;-70
2021/04/19 12:35:54;;;;;;;;;;;;;;;21.71;40.25;100788.69;5098937;28;19919;-70
2021/04/19 12:38:19;;;;;;;;;;;;;;;21.78;40.27;100772.72;5078373;28;19978;-70
2021/04/19 12:40:44;;;;;;;;;;;;;;;21.85;39.39;100777.75;5081079;28;20408;-70
2021/04/19 12:43:10;;;;;;;;;;;;;;;21.85;40.10;100772.09;5095444;28;19920;-70